sensor_id;sensor_type;location;lat;lon;timestamp;pressure;altitude;pressure_sealevel;temperature;humidity
41706;BME280;27385;51.096;17.190;2023-05-03T00:02:05;101121.52;;;11.34;73.13
41706;BME280;27385;51.096;17.190;2023-05-03T00:04:36;101120.91;;;11.34;73.36
41706;BME280;27385;51.096;17.190;2023-05-03T00:07:08;101119.21;;;11.30;73.40
41706;BME280;27385;51.096;17.190;2023-05-03T00:09:39;101118.20;;;11.28;73.56
41706;BME280;27385;51.096;17.190;2023-05-03T00:12:10;101121.70;;;11.24;73.63
41706;BME280;27385;51.096;17.190;2023-05-03T00:14:40;101121.79;;;11.22;73.69
41706;BME280;27385;51.096;17.190;2023-05-03T00:17:12;101125.98;;;11.17;73.42
41706;BME280;27385;51.096;17.190;2023-05-03T00:19:42;101124.11;;;11.09;73.29
41706;BME280;27385;51.096;17.190;2023-05-03T00:22:13;101127.71;;;11.02;73.41
41706;BME280;27385;51.096;17.190;2023-05-03T00:24:44;101130.24;;;10.97;73.56
41706;BME280;27385;51.096;17.190;2023-05-03T00:27:15;101133.80;;;10.92;73.47
41706;BME280;27385;51.096;17.190;2023-05-03T00:29:48;101132.52;;;10.87;73.22
41706;BME280;27385;51.096;17.190;2023-05-03T00:32:20;101133.36;;;10.83;72.90
41706;BME280;27385;51.096;17.190;2023-05-03T00:34:54;101133.23;;;10.81;73.06
41706;BME280;27385;51.096;17.190;2023-05-03T00:37:25;101138.98;;;10.80;73.05
41706;BME280;27385;51.096;17.190;2023-05-03T00:39:58;101134.20;;;10.78;72.97
41706;BME280;27385;51.096;17.190;2023-05-03T00:42:28;101134.48;;;10.77;73.12
41706;BME280;27385;51.096;17.190;2023-05-03T00:44:59;101134.56;;;10.75;73.16
41706;BME280;27385;51.096;17.190;2023-05-03T00:47:33;101131.00;;;10.73;73.06
41706;BME280;27385;51.096;17.190;2023-05-03T00:50:07;101139.11;;;10.70;73.30
41706;BME280;27385;51.096;17.190;2023-05-03T00:52:40;101140.92;;;10.64;73.29
41706;BME280;27385;51.096;17.190;2023-05-03T00:55:12;101139.31;;;10.55;73.19
41706;BME280;27385;51.096;17.190;2023-05-03T00:57:45;101144.24;;;10.50;73.34
41706;BME280;27385;51.096;17.190;2023-05-03T01:00:17;101148.38;;;10.43;72.90
41706;BME280;27385;51.096;17.190;2023-05-03T01:02:49;101151.89;;;10.37;72.64
41706;BME280;27385;51.096;17.190;2023-05-03T01:05:20;101148.76;;;10.32;72.52
41706;BME280;27385;51.096;17.190;2023-05-03T01:07:58;101148.62;;;10.29;72.56
41706;BME280;27385;51.096;17.190;2023-05-03T01:10:39;101148.11;;;10.25;72.13
41706;BME280;27385;51.096;17.190;2023-05-03T01:13:16;101150.38;;;10.23;72.27
41706;BME280;27385;51.096;17.190;2023-05-03T01:15:56;101157.41;;;10.20;72.04
41706;BME280;27385;51.096;17.190;2023-05-03T01:18:31;101163.44;;;10.16;72.13
41706;BME280;27385;51.096;17.190;2023-05-03T01:21:05;101166.09;;;10.14;72.32
41706;BME280;27385;51.096;17.190;2023-05-03T01:23:41;101164.23;;;10.12;72.21
41706;BME280;27385;51.096;17.190;2023-05-03T01:26:23;101163.52;;;10.10;72.39
41706;BME280;27385;51.096;17.190;2023-05-03T01:28:54;101161.65;;;10.06;72.16
41706;BME280;27385;51.096;17.190;2023-05-03T01:31:28;101164.58;;;10.04;72.28
41706;BME280;27385;51.096;17.190;2023-05-03T01:34:13;101168.56;;;10.02;72.33
41706;BME280;27385;51.096;17.190;2023-05-03T01:36:49;101167.70;;;9.99;72.53
41706;BME280;27385;51.096;17.190;2023-05-03T01:39:25;101170.70;;;9.98;72.60
41706;BME280;27385;51.096;17.190;2023-05-03T01:41:58;101171.63;;;9.97;72.68
41706;BME280;27385;51.096;17.190;2023-05-03T01:44:30;101174.64;;;9.95;72.80
41706;BME280;27385;51.096;17.190;2023-05-03T01:47:02;101177.20;;;9.92;72.96
41706;BME280;27385;51.096;17.190;2023-05-03T01:49:32;101179.79;;;9.91;72.89
41706;BME280;27385;51.096;17.190;2023-05-03T01:52:04;101179.46;;;9.89;72.89
41706;BME280;27385;51.096;17.190;2023-05-03T01:54:35;101181.02;;;9.88;73.00
41706;BME280;27385;51.096;17.190;2023-05-03T01:57:06;101180.71;;;9.85;73.02
41706;BME280;27385;51.096;17.190;2023-05-03T01:59:37;101179.71;;;9.82;72.88
41706;BME280;27385;51.096;17.190;2023-05-03T02:02:07;101182.59;;;9.79;72.84
41706;BME280;27385;51.096;17.190;2023-05-03T02:04:38;101192.60;;;9.78;72.97
41706;BME280;27385;51.096;17.190;2023-05-03T02:07:09;101190.04;;;9.76;73.22
41706;BME280;27385;51.096;17.190;2023-05-03T02:09:40;101193.27;;;9.74;73.27
41706;BME280;27385;51.096;17.190;2023-05-03T02:12:10;101194.70;;;9.72;73.16
41706;BME280;27385;51.096;17.190;2023-05-03T02:14:41;101191.67;;;9.70;73.27
41706;BME280;27385;51.096;17.190;2023-05-03T02:17:12;101194.20;;;9.68;73.14
41706;BME280;27385;51.096;17.190;2023-05-03T02:19:45;101191.02;;;9.66;73.26
41706;BME280;27385;51.096;17.190;2023-05-03T02:22:16;101196.52;;;9.64;73.28
41706;BME280;27385;51.096;17.190;2023-05-03T02:24:47;101195.25;;;9.61;73.34
41706;BME280;27385;51.096;17.190;2023-05-03T02:27:18;101197.53;;;9.57;73.28
41706;BME280;27385;51.096;17.190;2023-05-03T02:29:49;101194.39;;;9.53;73.23
41706;BME280;27385;51.096;17.190;2023-05-03T02:32:19;101193.63;;;9.49;72.88
41706;BME280;27385;51.096;17.190;2023-05-03T02:34:50;101196.23;;;9.46;73.00
41706;BME280;27385;51.096;17.190;2023-05-03T02:37:21;101195.05;;;9.41;73.13
41706;BME280;27385;51.096;17.190;2023-05-03T02:39:52;101197.09;;;9.37;72.84
41706;BME280;27385;51.096;17.190;2023-05-03T02:42:23;101196.36;;;9.32;72.77
41706;BME280;27385;51.096;17.190;2023-05-03T02:44:54;101200.75;;;9.27;72.21
41706;BME280;27385;51.096;17.190;2023-05-03T02:47:25;101204.16;;;9.21;71.99
41706;BME280;27385;51.096;17.190;2023-05-03T02:49:56;101204.85;;;9.16;71.82
41706;BME280;27385;51.096;17.190;2023-05-03T02:52:27;101209.48;;;9.11;72.02
41706;BME280;27385;51.096;17.190;2023-05-03T02:54:58;101213.93;;;9.06;72.03
41706;BME280;27385;51.096;17.190;2023-05-03T02:57:29;101216.72;;;9.00;71.99
41706;BME280;27385;51.096;17.190;2023-05-03T03:00:00;101221.32;;;8.95;71.93
41706;BME280;27385;51.096;17.190;2023-05-03T03:02:31;101223.58;;;8.89;71.74
41706;BME280;27385;51.096;17.190;2023-05-03T03:05:02;101225.75;;;8.86;71.97
41706;BME280;27385;51.096;17.190;2023-05-03T03:07:33;101224.94;;;8.81;71.93
41706;BME280;27385;51.096;17.190;2023-05-03T03:10:05;101226.66;;;8.76;72.18
41706;BME280;27385;51.096;17.190;2023-05-03T03:12:36;101226.59;;;8.71;72.24
41706;BME280;27385;51.096;17.190;2023-05-03T03:15:09;101226.83;;;8.64;71.96
41706;BME280;27385;51.096;17.190;2023-05-03T03:17:41;101223.36;;;8.54;71.85
41706;BME280;27385;51.096;17.190;2023-05-03T03:20:12;101223.60;;;8.43;71.87
41706;BME280;27385;51.096;17.190;2023-05-03T03:22:44;101223.09;;;8.33;72.03
41706;BME280;27385;51.096;17.190;2023-05-03T03:25:15;101224.70;;;8.23;72.18
41706;BME280;27385;51.096;17.190;2023-05-03T03:27:46;101221.63;;;8.13;72.20
41706;BME280;27385;51.096;17.190;2023-05-03T03:30:17;101224.79;;;8.05;72.42
41706;BME280;27385;51.096;17.190;2023-05-03T03:32:48;101223.86;;;7.98;72.54
41706;BME280;27385;51.096;17.190;2023-05-03T03:35:19;101221.99;;;7.93;72.78
41706;BME280;27385;51.096;17.190;2023-05-03T03:37:51;101228.09;;;7.88;72.83
41706;BME280;27385;51.096;17.190;2023-05-03T03:40:21;101230.42;;;7.81;73.25
41706;BME280;27385;51.096;17.190;2023-05-03T03:42:52;101232.50;;;7.74;73.45
41706;BME280;27385;51.096;17.190;2023-05-03T03:45:23;101230.95;;;7.70;73.76
41706;BME280;27385;51.096;17.190;2023-05-03T03:47:54;101229.14;;;7.66;73.89
41706;BME280;27385;51.096;17.190;2023-05-03T03:50:26;101235.31;;;7.64;74.18
41706;BME280;27385;51.096;17.190;2023-05-03T03:52:57;101235.90;;;7.63;74.12
41706;BME280;27385;51.096;17.190;2023-05-03T03:55:29;101239.98;;;7.61;74.27
41706;BME280;27385;51.096;17.190;2023-05-03T03:58:00;101241.45;;;7.60;74.52
41706;BME280;27385;51.096;17.190;2023-05-03T04:00:31;101246.65;;;7.58;74.64
41706;BME280;27385;51.096;17.190;2023-05-03T04:03:03;101246.80;;;7.56;74.54
41706;BME280;27385;51.096;17.190;2023-05-03T04:05:34;101249.92;;;7.54;74.55
41706;BME280;27385;51.096;17.190;2023-05-03T04:08:05;101247.70;;;7.51;74.82
41706;BME280;27385;51.096;17.190;2023-05-03T04:10:36;101252.16;;;7.47;74.93
41706;BME280;27385;51.096;17.190;2023-05-03T04:13:07;101249.70;;;7.44;74.97
41706;BME280;27385;51.096;17.190;2023-05-03T04:15:39;101255.44;;;7.39;75.14
41706;BME280;27385;51.096;17.190;2023-05-03T04:18:10;101260.33;;;7.33;75.20
41706;BME280;27385;51.096;17.190;2023-05-03T04:20:40;101258.40;;;7.28;75.33
41706;BME280;27385;51.096;17.190;2023-05-03T04:23:12;101258.21;;;7.22;75.53
41706;BME280;27385;51.096;17.190;2023-05-03T04:25:45;101260.94;;;7.18;75.55
41706;BME280;27385;51.096;17.190;2023-05-03T04:28:16;101269.42;;;7.14;76.00
41706;BME280;27385;51.096;17.190;2023-05-03T04:30:47;101270.48;;;7.10;76.20
41706;BME280;27385;51.096;17.190;2023-05-03T04:33:19;101274.95;;;7.05;76.03
41706;BME280;27385;51.096;17.190;2023-05-03T04:35:53;101274.59;;;7.00;76.20
41706;BME280;27385;51.096;17.190;2023-05-03T04:38:24;101276.73;;;6.95;76.34
41706;BME280;27385;51.096;17.190;2023-05-03T04:40:55;101277.90;;;6.93;76.69
41706;BME280;27385;51.096;17.190;2023-05-03T04:43:26;101278.35;;;6.94;76.81
41706;BME280;27385;51.096;17.190;2023-05-03T04:45:58;101285.34;;;6.98;77.24
41706;BME280;27385;51.096;17.190;2023-05-03T04:48:29;101290.10;;;7.01;76.92
41706;BME280;27385;51.096;17.190;2023-05-03T04:51:00;101288.84;;;7.05;76.96
41706;BME280;27385;51.096;17.190;2023-05-03T04:53:31;101288.96;;;7.10;77.12
41706;BME280;27385;51.096;17.190;2023-05-03T04:56:02;101290.35;;;7.15;76.86
41706;BME280;27385;51.096;17.190;2023-05-03T04:58:33;101293.81;;;7.20;76.61
41706;BME280;27385;51.096;17.190;2023-05-03T05:01:05;101304.23;;;7.26;76.47
41706;BME280;27385;51.096;17.190;2023-05-03T05:03:35;101309.63;;;7.29;76.46
41706;BME280;27385;51.096;17.190;2023-05-03T05:06:07;101305.65;;;7.33;76.19
41706;BME280;27385;51.096;17.190;2023-05-03T05:08:39;101304.57;;;7.35;76.15
41706;BME280;27385;51.096;17.190;2023-05-03T05:11:10;101307.55;;;7.38;76.22
41706;BME280;27385;51.096;17.190;2023-05-03T05:13:42;101309.67;;;7.42;76.34
41706;BME280;27385;51.096;17.190;2023-05-03T05:16:12;101309.84;;;7.45;75.86
41706;BME280;27385;51.096;17.190;2023-05-03T05:18:44;101317.09;;;7.47;76.14
41706;BME280;27385;51.096;17.190;2023-05-03T05:21:15;101319.50;;;7.49;76.02
41706;BME280;27385;51.096;17.190;2023-05-03T05:23:46;101316.86;;;7.51;75.85
41706;BME280;27385;51.096;17.190;2023-05-03T05:26:17;101320.11;;;7.54;76.05
41706;BME280;27385;51.096;17.190;2023-05-03T05:28:48;101322.72;;;7.58;75.96
41706;BME280;27385;51.096;17.190;2023-05-03T05:31:19;101326.41;;;7.63;76.19
41706;BME280;27385;51.096;17.190;2023-05-03T05:33:50;101328.42;;;7.71;76.49
41706;BME280;27385;51.096;17.190;2023-05-03T05:36:21;101327.16;;;7.82;76.32
41706;BME280;27385;51.096;17.190;2023-05-03T05:38:52;101328.45;;;7.90;75.83
41706;BME280;27385;51.096;17.190;2023-05-03T05:41:22;101333.65;;;7.95;75.46
41706;BME280;27385;51.096;17.190;2023-05-03T05:43:54;101331.99;;;7.98;75.50
41706;BME280;27385;51.096;17.190;2023-05-03T05:46:24;101337.07;;;8.01;75.61
41706;BME280;27385;51.096;17.190;2023-05-03T05:48:55;101341.70;;;8.03;75.42
41706;BME280;27385;51.096;17.190;2023-05-03T05:51:26;101343.73;;;8.04;75.58
41706;BME280;27385;51.096;17.190;2023-05-03T05:53:59;101348.54;;;8.06;75.58
41706;BME280;27385;51.096;17.190;2023-05-03T05:56:29;101355.55;;;8.09;75.41
41706;BME280;27385;51.096;17.190;2023-05-03T05:59:00;101361.77;;;8.11;75.21
41706;BME280;27385;51.096;17.190;2023-05-03T06:01:34;101361.03;;;8.12;75.12
41706;BME280;27385;51.096;17.190;2023-05-03T06:04:05;101359.98;;;8.13;75.36
41706;BME280;27385;51.096;17.190;2023-05-03T06:06:36;101370.70;;;8.13;75.27
41706;BME280;27385;51.096;17.190;2023-05-03T06:09:07;101370.95;;;8.13;75.53
41706;BME280;27385;51.096;17.190;2023-05-03T06:11:38;101377.23;;;8.16;75.31
41706;BME280;27385;51.096;17.190;2023-05-03T06:14:11;101377.02;;;8.21;75.17
41706;BME280;27385;51.096;17.190;2023-05-03T06:16:42;101379.99;;;8.27;75.34
41706;BME280;27385;51.096;17.190;2023-05-03T06:19:13;101383.69;;;8.35;75.09
41706;BME280;27385;51.096;17.190;2023-05-03T06:21:44;101384.23;;;8.47;75.01
41706;BME280;27385;51.096;17.190;2023-05-03T06:24:16;101382.70;;;8.63;74.70
41706;BME280;27385;51.096;17.190;2023-05-03T06:26:49;101385.30;;;8.79;74.78
41706;BME280;27385;51.096;17.190;2023-05-03T06:29:21;101387.83;;;8.91;74.28
41706;BME280;27385;51.096;17.190;2023-05-03T06:31:52;101389.45;;;9.02;74.44
41706;BME280;27385;51.096;17.190;2023-05-03T06:34:23;101393.80;;;9.13;74.45
41706;BME280;27385;51.096;17.190;2023-05-03T06:36:55;101395.02;;;9.24;74.21
41706;BME280;27385;51.096;17.190;2023-05-03T06:39:26;101395.66;;;9.34;74.34
41706;BME280;27385;51.096;17.190;2023-05-03T06:41:57;101393.25;;;9.43;73.71
41706;BME280;27385;51.096;17.190;2023-05-03T06:44:27;101395.17;;;9.48;73.47
41706;BME280;27385;51.096;17.190;2023-05-03T06:46:59;101394.89;;;9.52;73.42
41706;BME280;27385;51.096;17.190;2023-05-03T06:49:29;101391.65;;;9.59;73.31
41706;BME280;27385;51.096;17.190;2023-05-03T06:52:00;101394.91;;;9.67;73.09
41706;BME280;27385;51.096;17.190;2023-05-03T06:54:31;101392.90;;;9.75;72.76
41706;BME280;27385;51.096;17.190;2023-05-03T06:57:02;101395.60;;;9.83;72.66
41706;BME280;27385;51.096;17.190;2023-05-03T06:59:33;101400.05;;;9.91;72.61
41706;BME280;27385;51.096;17.190;2023-05-03T07:02:05;101396.95;;;9.99;72.19
41706;BME280;27385;51.096;17.190;2023-05-03T07:04:36;101397.19;;;10.03;71.74
41706;BME280;27385;51.096;17.190;2023-05-03T07:07:08;101397.52;;;10.11;71.29
41706;BME280;27385;51.096;17.190;2023-05-03T07:09:39;101398.74;;;10.20;71.41
41706;BME280;27385;51.096;17.190;2023-05-03T07:12:10;101394.69;;;10.27;70.91
41706;BME280;27385;51.096;17.190;2023-05-03T07:14:41;101395.51;;;10.34;70.30
41706;BME280;27385;51.096;17.190;2023-05-03T07:17:12;101393.42;;;10.39;70.19
41706;BME280;27385;51.096;17.190;2023-05-03T07:19:44;101393.19;;;10.50;69.45
41706;BME280;27385;51.096;17.190;2023-05-03T07:22:18;101391.80;;;10.60;69.16
41706;BME280;27385;51.096;17.190;2023-05-03T07:24:53;101393.70;;;10.72;69.32
41706;BME280;27385;51.096;17.190;2023-05-03T07:27:27;101393.36;;;10.79;68.80
41706;BME280;27385;51.096;17.190;2023-05-03T07:29:58;101396.20;;;10.81;68.35
41706;BME280;27385;51.096;17.190;2023-05-03T07:32:29;101387.48;;;10.81;68.54
41706;BME280;27385;51.096;17.190;2023-05-03T07:35:00;101387.67;;;10.87;68.63
41706;BME280;27385;51.096;17.190;2023-05-03T07:37:31;101387.30;;;10.86;67.10
41706;BME280;27385;51.096;17.190;2023-05-03T07:40:02;101388.71;;;10.80;66.95
41706;BME280;27385;51.096;17.190;2023-05-03T07:42:35;101388.04;;;10.74;67.57
41706;BME280;27385;51.096;17.190;2023-05-03T07:45:08;101386.03;;;10.72;67.73
41706;BME280;27385;51.096;17.190;2023-05-03T07:47:39;101386.55;;;10.74;67.92
41706;BME280;27385;51.096;17.190;2023-05-03T07:50:10;101388.95;;;10.74;66.49
41706;BME280;27385;51.096;17.190;2023-05-03T07:52:41;101392.49;;;10.77;66.10
41706;BME280;27385;51.096;17.190;2023-05-03T07:55:12;101391.91;;;10.83;65.81
41706;BME280;27385;51.096;17.190;2023-05-03T07:57:43;101388.47;;;10.93;65.51
41706;BME280;27385;51.096;17.190;2023-05-03T08:00:15;101385.70;;;11.06;65.15
41706;BME280;27385;51.096;17.190;2023-05-03T08:02:47;101385.00;;;11.20;64.32
41706;BME280;27385;51.096;17.190;2023-05-03T08:05:18;101379.64;;;11.31;63.58
41706;BME280;27385;51.096;17.190;2023-05-03T08:07:49;101378.61;;;11.41;63.89
41706;BME280;27385;51.096;17.190;2023-05-03T08:10:21;101380.95;;;11.54;62.49
41706;BME280;27385;51.096;17.190;2023-05-03T08:12:51;101381.41;;;11.58;61.88
41706;BME280;27385;51.096;17.190;2023-05-03T08:15:22;101381.63;;;11.60;60.66
41706;BME280;27385;51.096;17.190;2023-05-03T08:17:54;101378.35;;;11.55;60.20
41706;BME280;27385;51.096;17.190;2023-05-03T08:20:24;101378.95;;;11.49;60.08
41706;BME280;27385;51.096;17.190;2023-05-03T08:22:56;101384.91;;;11.46;59.86
41706;BME280;27385;51.096;17.190;2023-05-03T08:25:27;101387.95;;;11.44;58.78
41706;BME280;27385;51.096;17.190;2023-05-03T08:27:58;101386.78;;;11.45;60.05
41706;BME280;27385;51.096;17.190;2023-05-03T08:30:30;101388.38;;;11.51;58.94
41706;BME280;27385;51.096;17.190;2023-05-03T08:33:01;101386.83;;;11.56;58.63
41706;BME280;27385;51.096;17.190;2023-05-03T08:35:32;101386.48;;;11.59;58.91
41706;BME280;27385;51.096;17.190;2023-05-03T08:38:03;101386.48;;;11.63;58.75
41706;BME280;27385;51.096;17.190;2023-05-03T08:40:35;101390.07;;;11.70;57.62
41706;BME280;27385;51.096;17.190;2023-05-03T08:43:09;101388.40;;;11.78;57.39
41706;BME280;27385;51.096;17.190;2023-05-03T08:45:41;101387.84;;;11.88;56.91
41706;BME280;27385;51.096;17.190;2023-05-03T08:48:13;101394.67;;;11.99;56.34
41706;BME280;27385;51.096;17.190;2023-05-03T08:50:44;101395.23;;;12.04;56.03
41706;BME280;27385;51.096;17.190;2023-05-03T08:53:15;101394.23;;;12.00;55.49
41706;BME280;27385;51.096;17.190;2023-05-03T08:55:46;101388.34;;;11.95;55.65
41706;BME280;27385;51.096;17.190;2023-05-03T08:58:17;101390.16;;;11.98;55.01
41706;BME280;27385;51.096;17.190;2023-05-03T09:00:48;101389.45;;;12.03;55.26
41706;BME280;27385;51.096;17.190;2023-05-03T09:03:19;101390.70;;;12.13;55.06
41706;BME280;27385;51.096;17.190;2023-05-03T09:05:50;101393.18;;;12.24;54.76
41706;BME280;27385;51.096;17.190;2023-05-03T09:08:21;101392.43;;;12.36;53.77
41706;BME280;27385;51.096;17.190;2023-05-03T09:10:52;101385.77;;;12.44;54.16
41706;BME280;27385;51.096;17.190;2023-05-03T09:13:30;101394.27;;;12.42;53.39
41706;BME280;27385;51.096;17.190;2023-05-03T09:16:01;101389.39;;;12.26;53.51
41706;BME280;27385;51.096;17.190;2023-05-03T09:18:32;101388.16;;;12.15;53.39
41706;BME280;27385;51.096;17.190;2023-05-03T09:21:03;101391.77;;;12.12;53.36
41706;BME280;27385;51.096;17.190;2023-05-03T09:23:34;101396.59;;;12.16;53.78
41706;BME280;27385;51.096;17.190;2023-05-03T09:26:05;101397.21;;;12.16;52.07
41706;BME280;27385;51.096;17.190;2023-05-03T09:28:42;101391.98;;;12.09;51.96
41706;BME280;27385;51.096;17.190;2023-05-03T09:31:14;101388.24;;;12.11;52.43
41706;BME280;27385;51.096;17.190;2023-05-03T09:33:45;101387.70;;;12.17;52.90
41706;BME280;27385;51.096;17.190;2023-05-03T09:36:16;101392.08;;;12.29;52.65
41706;BME280;27385;51.096;17.190;2023-05-03T09:38:46;101390.66;;;12.32;51.54
41706;BME280;27385;51.096;17.190;2023-05-03T09:41:27;101392.30;;;12.26;51.13
41706;BME280;27385;51.096;17.190;2023-05-03T09:43:58;101383.66;;;12.24;51.52
41706;BME280;27385;51.096;17.190;2023-05-03T09:46:31;101384.38;;;12.32;51.38
41706;BME280;27385;51.096;17.190;2023-05-03T09:49:02;101385.61;;;12.46;51.57
41706;BME280;27385;51.096;17.190;2023-05-03T09:51:34;101385.34;;;12.63;51.49
41706;BME280;27385;51.096;17.190;2023-05-03T09:54:06;101392.48;;;12.68;51.30
41706;BME280;27385;51.096;17.190;2023-05-03T09:56:39;101384.88;;;12.66;51.64
41706;BME280;27385;51.096;17.190;2023-05-03T09:59:13;101393.75;;;12.65;51.25
41706;BME280;27385;51.096;17.190;2023-05-03T10:01:45;101391.61;;;12.59;50.74
41706;BME280;27385;51.096;17.190;2023-05-03T10:04:18;101396.67;;;12.55;50.64
41706;BME280;27385;51.096;17.190;2023-05-03T10:06:55;101388.95;;;12.54;50.98
41706;BME280;27385;51.096;17.190;2023-05-03T10:09:31;101386.62;;;12.57;51.30
41706;BME280;27385;51.096;17.190;2023-05-03T10:12:08;101385.98;;;12.60;51.07
41706;BME280;27385;51.096;17.190;2023-05-03T10:14:42;101386.59;;;12.64;51.03
41706;BME280;27385;51.096;17.190;2023-05-03T10:17:17;101387.34;;;12.67;50.63
41706;BME280;27385;51.096;17.190;2023-05-03T10:19:53;101379.13;;;12.68;50.45
41706;BME280;27385;51.096;17.190;2023-05-03T10:22:25;101379.65;;;12.68;50.92
41706;BME280;27385;51.096;17.190;2023-05-03T10:25:12;101383.02;;;12.81;50.68
41706;BME280;27385;51.096;17.190;2023-05-03T10:27:50;101378.00;;;12.89;50.58
41706;BME280;27385;51.096;17.190;2023-05-03T10:30:30;101384.95;;;12.99;50.56
41706;BME280;27385;51.096;17.190;2023-05-03T10:33:30;101387.41;;;13.08;49.87
41706;BME280;27385;51.096;17.190;2023-05-03T10:36:07;101382.98;;;13.10;49.52
41706;BME280;27385;51.096;17.190;2023-05-03T10:38:42;101381.00;;;13.05;48.30
41706;BME280;27385;51.096;17.190;2023-05-03T10:41:13;101378.63;;;13.01;48.93
41706;BME280;27385;51.096;17.190;2023-05-03T10:43:57;101379.98;;;13.09;48.97
41706;BME280;27385;51.096;17.190;2023-05-03T10:46:46;101376.12;;;13.09;48.00
41706;BME280;27385;51.096;17.190;2023-05-03T10:49:18;101369.75;;;13.19;49.37
41706;BME280;27385;51.096;17.190;2023-05-03T10:51:51;101375.56;;;13.32;49.64
41706;BME280;27385;51.096;17.190;2023-05-03T10:54:22;101379.81;;;13.38;48.83
41706;BME280;27385;51.096;17.190;2023-05-03T10:56:55;101375.30;;;13.34;48.88
41706;BME280;27385;51.096;17.190;2023-05-03T10:59:48;101376.77;;;13.33;49.18
41706;BME280;27385;51.096;17.190;2023-05-03T11:02:25;101374.43;;;13.32;49.10
41706;BME280;27385;51.096;17.190;2023-05-03T11:05:01;101377.25;;;13.30;48.57
41706;BME280;27385;51.096;17.190;2023-05-03T11:07:38;101374.88;;;13.27;48.36
41706;BME280;27385;51.096;17.190;2023-05-03T11:10:18;101374.13;;;13.25;47.66
41706;BME280;27385;51.096;17.190;2023-05-03T11:12:50;101370.37;;;13.23;47.80
41706;BME280;27385;51.096;17.190;2023-05-03T11:15:22;101372.77;;;13.25;47.65
41706;BME280;27385;51.096;17.190;2023-05-03T11:17:53;101371.10;;;13.29;47.73
41706;BME280;27385;51.096;17.190;2023-05-03T11:20:25;101375.27;;;13.36;47.45
41706;BME280;27385;51.096;17.190;2023-05-03T11:23:07;101370.77;;;13.36;46.14
41706;BME280;27385;51.096;17.190;2023-05-03T11:25:40;101371.64;;;13.30;47.15
41706;BME280;27385;51.096;17.190;2023-05-03T11:28:11;101368.09;;;13.35;47.03
41706;BME280;27385;51.096;17.190;2023-05-03T11:30:44;101364.20;;;13.38;46.56
41706;BME280;27385;51.096;17.190;2023-05-03T11:33:16;101365.55;;;13.45;47.53
41706;BME280;27385;51.096;17.190;2023-05-03T11:35:47;101368.39;;;13.51;47.37
41706;BME280;27385;51.096;17.190;2023-05-03T11:38:19;101372.75;;;13.52;47.66
41706;BME280;27385;51.096;17.190;2023-05-03T11:40:50;101375.25;;;13.52;47.70
41706;BME280;27385;51.096;17.190;2023-05-03T11:43:21;101372.16;;;13.55;47.24
41706;BME280;27385;51.096;17.190;2023-05-03T11:45:56;101372.56;;;13.56;47.77
41706;BME280;27385;51.096;17.190;2023-05-03T11:48:28;101372.82;;;13.59;47.15
41706;BME280;27385;51.096;17.190;2023-05-03T11:51:07;101376.42;;;13.54;46.24
41706;BME280;27385;51.096;17.190;2023-05-03T11:53:40;101369.68;;;13.49;46.36
41706;BME280;27385;51.096;17.190;2023-05-03T11:56:13;101373.61;;;13.48;46.27
41706;BME280;27385;51.096;17.190;2023-05-03T11:58:53;101365.55;;;13.47;46.13
41706;BME280;27385;51.096;17.190;2023-05-03T12:01:27;101365.08;;;13.47;46.44
41706;BME280;27385;51.096;17.190;2023-05-03T12:03:59;101368.23;;;13.53;46.54
41706;BME280;27385;51.096;17.190;2023-05-03T12:06:31;101375.58;;;13.50;46.28
41706;BME280;27385;51.096;17.190;2023-05-03T12:09:03;101374.37;;;13.47;45.57
41706;BME280;27385;51.096;17.190;2023-05-03T12:11:43;101372.41;;;13.41;45.14
41706;BME280;27385;51.096;17.190;2023-05-03T12:14:14;101367.82;;;13.31;45.26
41706;BME280;27385;51.096;17.190;2023-05-03T12:16:49;101362.58;;;13.29;45.42
41706;BME280;27385;51.096;17.190;2023-05-03T12:19:28;101362.80;;;13.37;45.79
41706;BME280;27385;51.096;17.190;2023-05-03T12:21:58;101362.70;;;13.48;45.29
41706;BME280;27385;51.096;17.190;2023-05-03T12:24:30;101359.41;;;13.53;44.90
41706;BME280;27385;51.096;17.190;2023-05-03T12:27:01;101360.00;;;13.54;44.79
41706;BME280;27385;51.096;17.190;2023-05-03T12:29:32;101356.75;;;13.55;44.96
41706;BME280;27385;51.096;17.190;2023-05-03T12:32:03;101357.27;;;13.53;44.89
41706;BME280;27385;51.096;17.190;2023-05-03T12:34:34;101359.41;;;13.53;45.53
41706;BME280;27385;51.096;17.190;2023-05-03T12:37:05;101358.80;;;13.50;45.22
41706;BME280;27385;51.096;17.190;2023-05-03T12:39:35;101357.02;;;13.51;44.98
41706;BME280;27385;51.096;17.190;2023-05-03T12:42:07;101356.52;;;13.56;45.34
41706;BME280;27385;51.096;17.190;2023-05-03T12:44:40;101351.11;;;13.65;45.55
41706;BME280;27385;51.096;17.190;2023-05-03T12:47:12;101344.69;;;13.79;44.74
41706;BME280;27385;51.096;17.190;2023-05-03T12:49:44;101343.02;;;13.84;44.14
41706;BME280;27385;51.096;17.190;2023-05-03T12:52:15;101341.83;;;13.84;44.21
41706;BME280;27385;51.096;17.190;2023-05-03T12:54:46;101338.65;;;13.78;44.64
41706;BME280;27385;51.096;17.190;2023-05-03T12:57:17;101336.98;;;13.79;45.43
41706;BME280;27385;51.096;17.190;2023-05-03T12:59:48;101331.66;;;13.80;44.01
41706;BME280;27385;51.096;17.190;2023-05-03T13:02:21;101325.81;;;13.74;44.49
41706;BME280;27385;51.096;17.190;2023-05-03T13:04:52;101326.48;;;13.75;44.67
41706;BME280;27385;51.096;17.190;2023-05-03T13:07:26;101326.34;;;13.75;44.36
41706;BME280;27385;51.096;17.190;2023-05-03T13:09:57;101335.02;;;13.72;44.29
41706;BME280;27385;51.096;17.190;2023-05-03T13:12:28;101334.88;;;13.68;44.15